createdAt,value
2022-08-03T00:00:09.890Z,98875.59
2022-08-03T00:02:57.787Z,98881.06
2022-08-03T00:06:03.458Z,98875.23
2022-08-03T00:08:37.642Z,98878.15
2022-08-03T00:11:23.497Z,98874.33
2022-08-03T00:14:11.048Z,98873.61
2022-08-03T00:16:58.617Z,98878.38
2022-08-03T00:19:46.938Z,98878.84
2022-08-03T00:22:36.274Z,98874.08
2022-08-03T00:25:23.985Z,98877.58
2022-08-03T00:28:11.713Z,98877.91
2022-08-03T00:30:59.225Z,98875.84
2022-08-03T00:33:58.083Z,98876.84
2022-08-03T00:36:35.410Z,98877.08
2022-08-03T00:39:23.010Z,98869.86
2022-08-03T00:42:10.298Z,98880.77
2022-08-03T00:44:57.668Z,98881.33
2022-08-03T00:47:45.928Z,98885.17
2022-08-03T00:50:35.715Z,98875.53
2022-08-03T00:53:23.433Z,98881.45
2022-08-03T00:56:12.716Z,98878.44
2022-08-03T00:59:00.617Z,98883.74
2022-08-03T01:01:48.330Z,98883.42
2022-08-03T01:04:35.956Z,98879.57
2022-08-03T01:07:35.216Z,98884.33
2022-08-03T01:10:31.649Z,98880.50
2022-08-03T01:14:01.290Z,98873.91
2022-08-03T01:16:35.848Z,98879.43
2022-08-03T01:19:39.184Z,98879.07
2022-08-03T01:23:03.057Z,98875.83
2022-08-03T01:26:12.658Z,98882.43
2022-08-03T01:29:21.840Z,98885.12
2022-08-03T01:33:02.784Z,98886.52
2022-08-03T01:35:12.811Z,98886.73
2022-08-03T01:38:04.930Z,98889.30
2022-08-03T01:40:54.784Z,98886.73
2022-08-03T01:43:55.339Z,98886.39
2022-08-03T01:46:33.289Z,98886.52
2022-08-03T01:49:21.701Z,98885.11
2022-08-03T01:52:09.405Z,98892.39
2022-08-03T01:54:57.416Z,98891.93
2022-08-03T01:58:05.873Z,98881.61
2022-08-03T02:00:37.616Z,98881.38
2022-08-03T02:03:26.321Z,98872.81
2022-08-03T02:07:00.099Z,98873.13
2022-08-03T02:09:05.080Z,98873.48
2022-08-03T02:11:53.727Z,98865.36
2022-08-03T02:14:43.432Z,98863.74
2022-08-03T02:17:39.000Z,98867.91
2022-08-03T02:20:21.281Z,98870.47
2022-08-03T02:23:08.777Z,98868.36
2022-08-03T02:26:02.305Z,98870.09
2022-08-03T02:28:52.343Z,98868.57
2022-08-03T02:31:41.360Z,98874.36
2022-08-03T02:34:30.019Z,98867.06
2022-08-03T02:37:19.553Z,98863.15
2022-08-03T02:40:08.391Z,98870.20
2022-08-03T02:42:59.359Z,98873.70
2022-08-03T02:45:49.360Z,98868.50
2022-08-03T02:48:38.432Z,98870.26
2022-08-03T02:51:26.880Z,98867.94
2022-08-03T02:54:16.561Z,98870.72
2022-08-03T02:57:04.247Z,98870.13
2022-08-03T02:59:51.736Z,98876.05
2022-08-03T03:02:40.831Z,98875.70
2022-08-03T03:05:52.241Z,98880.94
2022-08-03T03:08:26.157Z,98882.65
2022-08-03T03:11:10.488Z,98879.64
2022-08-03T03:13:58.799Z,98881.61
2022-08-03T03:16:47.304Z,98877.67
2022-08-03T03:19:38.144Z,98879.77
2022-08-03T03:22:26.215Z,98878.61
2022-08-03T03:25:13.999Z,98877.68
2022-08-03T03:28:02.423Z,98878.61
2022-08-03T03:30:52.846Z,98878.38
2022-08-03T03:33:40.667Z,98872.82
2022-08-03T03:36:28.104Z,98883.59
2022-08-03T03:39:16.206Z,98878.97
2022-08-03T03:42:04.368Z,98881.31
2022-08-03T03:44:51.697Z,98885.59
2022-08-03T03:47:39.823Z,98891.86
2022-08-03T03:50:28.508Z,98888.86
2022-08-03T03:53:16.303Z,98889.80
2022-08-03T03:56:04.102Z,98890.97
2022-08-03T03:58:51.575Z,98895.85
2022-08-03T04:01:40.158Z,98896.66
2022-08-03T04:04:45.607Z,98895.05
2022-08-03T04:07:49.871Z,98901.78
2022-08-03T04:10:43.077Z,98906.18
2022-08-03T04:13:36.326Z,98906.82
2022-08-03T04:16:26.590Z,98909.02
2022-08-03T04:19:18.455Z,98911.69
2022-08-03T04:24:55.071Z,98913.74
2022-08-03T04:27:43.841Z,98927.21
2022-08-03T04:30:32.446Z,98927.80
2022-08-03T04:33:19.997Z,98928.93
2022-08-03T04:36:10.902Z,98926.68
2022-08-03T04:39:01.720Z,98933.66
2022-08-03T04:42:02.346Z,98930.23
2022-08-03T04:44:41.375Z,98929.73
2022-08-03T04:47:28.985Z,98937.26
2022-08-03T04:50:21.398Z,98933.95
2022-08-03T04:53:07.888Z,98934.79
2022-08-03T04:55:55.679Z,98935.17
2022-08-03T04:58:43.351Z,98933.20
2022-08-03T05:01:30.462Z,98932.42
2022-08-03T05:04:18.577Z,98930.89
2022-08-03T05:07:11.671Z,98935.16
2022-08-03T05:10:01.320Z,98935.52
2022-08-03T05:12:43.327Z,98935.01
2022-08-03T05:15:30.712Z,98939.71
2022-08-03T05:18:18.560Z,98933.37
2022-08-03T05:21:05.823Z,98938.69
2022-08-03T05:23:53.312Z,98935.07
2022-08-03T05:26:40.527Z,98937.98
2022-08-03T05:29:27.785Z,98936.95
2022-08-03T05:32:15.439Z,98943.31
2022-08-03T05:35:57.366Z,98940.72
2022-08-03T05:37:54.756Z,98943.71
2022-08-03T05:40:40.391Z,98939.58
2022-08-03T05:43:29.458Z,98939.11
2022-08-03T05:46:17.138Z,98941.19
2022-08-03T05:49:04.865Z,98941.07
2022-08-03T05:52:00.285Z,98942.08
2022-08-03T05:54:56.647Z,98943.27
2022-08-03T05:57:31.440Z,98943.20
2022-08-03T06:00:19.712Z,98945.12
2022-08-03T06:03:08.792Z,98946.81
2022-08-03T06:06:00.323Z,98949.67
2022-08-03T06:08:46.803Z,98946.87
2022-08-03T06:11:34.520Z,98956.87
2022-08-03T06:14:22.176Z,98956.36
2022-08-03T06:17:09.464Z,98959.30
2022-08-03T06:19:58.489Z,98953.11
2022-08-03T06:22:51.177Z,98953.83
2022-08-03T06:25:35.993Z,98956.25
2022-08-03T06:28:53.038Z,98964.00
2022-08-03T06:31:12.985Z,98959.80
2022-08-03T06:34:33.027Z,98963.45
2022-08-03T06:36:52.262Z,98967.94
2022-08-03T06:39:40.209Z,98966.28
2022-08-03T06:42:27.921Z,98970.27
2022-08-03T06:45:15.512Z,98971.13
2022-08-03T06:48:10.969Z,98974.08
2022-08-03T06:50:58.630Z,98968.36
2022-08-03T06:53:46.410Z,98966.31
2022-08-03T06:56:33.841Z,98966.88
2022-08-03T07:00:10.364Z,98969.34
2022-08-03T07:02:10.690Z,98967.80
2022-08-03T07:04:58.307Z,98967.70
2022-08-03T07:07:46.433Z,98965.53
2022-08-03T07:10:33.803Z,98970.81
2022-08-03T07:13:21.194Z,98973.38
2022-08-03T07:16:08.784Z,98967.11
2022-08-03T07:18:56.098Z,98972.01
2022-08-03T07:21:43.794Z,98966.68
2022-08-03T07:24:31.473Z,98968.67
2022-08-03T07:27:18.945Z,98970.60
2022-08-03T07:30:08.340Z,98969.17
2022-08-03T07:32:55.482Z,98970.90
2022-08-03T07:35:42.945Z,98964.94
2022-08-03T07:38:30.245Z,98968.59
2022-08-03T07:41:17.945Z,98968.00
2022-08-03T07:44:05.480Z,98974.05
2022-08-03T07:46:52.771Z,98975.84
2022-08-03T07:49:44.479Z,98975.84
2022-08-03T07:52:33.912Z,98978.47
2022-08-03T07:55:24.409Z,98981.13
2022-08-03T07:58:16.474Z,98981.31
2022-08-03T08:01:04.607Z,98982.52
2022-08-03T08:03:53.446Z,98977.08
2022-08-03T08:06:41.201Z,98972.84
2022-08-03T08:09:29.134Z,98978.27
2022-08-03T08:12:16.988Z,98979.03
2022-08-03T08:15:04.695Z,98974.64
2022-08-03T08:17:54.629Z,98981.44
2022-08-03T08:20:41.769Z,98980.37
2022-08-03T08:23:37.904Z,98975.70
2022-08-03T08:26:20.213Z,98979.17
2022-08-03T08:29:07.512Z,98980.14
2022-08-03T08:31:55.048Z,98980.77
2022-08-03T08:34:42.648Z,98976.61
2022-08-03T08:37:29.666Z,98980.11
2022-08-03T08:40:17.618Z,98980.15
2022-08-03T08:43:07.603Z,98983.53
2022-08-03T08:45:55.816Z,98978.14
2022-08-03T08:48:45.147Z,98977.81
2022-08-03T08:51:51.040Z,98972.64
2022-08-03T08:54:23.576Z,98976.94
2022-08-03T08:57:26.858Z,98974.16
2022-08-03T09:00:01.871Z,98973.75
2022-08-03T09:02:49.463Z,98976.83
2022-08-03T09:05:55.490Z,98976.25
2022-08-03T09:08:27.873Z,98965.83
2022-08-03T09:11:14.913Z,98974.48
2022-08-03T09:14:02.591Z,98974.48
2022-08-03T09:17:04.448Z,98976.80
2022-08-03T09:20:11.391Z,98974.99
2022-08-03T09:23:19.074Z,98973.56
2022-08-03T09:25:57.105Z,98968.38
2022-08-03T09:29:00.086Z,98973.97
2022-08-03T09:31:45.070Z,98973.50
2022-08-03T09:34:33.057Z,98967.31
2022-08-03T09:37:23.536Z,98969.19
2022-08-03T09:40:13.479Z,98965.43
2022-08-03T09:43:01.857Z,98968.92
2022-08-03T09:45:49.378Z,98967.16
2022-08-03T09:48:37.492Z,98964.95
2022-08-03T09:51:33.202Z,98959.30
2022-08-03T09:54:20.630Z,98956.28
2022-08-03T09:57:06.605Z,98963.77
2022-08-03T10:00:04.703Z,98952.52
2022-08-03T10:02:46.840Z,98955.64
2022-08-03T10:05:34.432Z,98960.64
2022-08-03T10:08:22.361Z,98964.58
2022-08-03T10:11:09.688Z,98963.69
2022-08-03T10:13:57.968Z,98962.75
2022-08-03T10:16:46.729Z,98965.81
2022-08-03T10:19:34.828Z,98968.73
2022-08-03T10:25:11.288Z,98963.41
2022-08-03T10:28:01.225Z,98962.06
2022-08-03T10:30:53.287Z,98967.44
2022-08-03T10:33:49.687Z,98968.25
2022-08-03T10:36:33.839Z,98971.94
2022-08-03T10:39:23.372Z,98970.01
2022-08-03T10:42:14.705Z,98974.58
2022-08-03T10:45:02.655Z,98965.41
2022-08-03T10:47:51.162Z,98971.77
2022-08-03T10:50:39.209Z,98967.36
2022-08-03T10:53:37.681Z,98972.46
2022-08-03T10:56:55.420Z,98970.97
2022-08-03T10:59:52.442Z,98961.83
2022-08-03T11:03:08.926Z,98958.02
2022-08-03T11:06:17.825Z,98963.87
2022-08-03T11:09:16.936Z,98958.64
2022-08-03T11:12:05.896Z,98964.73
2022-08-03T11:14:55.095Z,98964.16
2022-08-03T11:17:46.925Z,98965.95
2022-08-03T11:20:47.436Z,98961.33
2022-08-03T11:24:04.714Z,98957.27
2022-08-03T11:26:38.592Z,98952.27
2022-08-03T11:29:30.593Z,98958.13
2022-08-03T11:32:37.643Z,98955.72
2022-08-03T11:35:37.064Z,98950.67
2022-08-03T11:38:24.967Z,98949.22
2022-08-03T11:41:15.492Z,98943.75
2022-08-03T11:44:03.289Z,98948.98
2022-08-03T11:46:50.712Z,98952.17
2022-08-03T11:49:40.550Z,98945.84
2022-08-03T11:52:29.090Z,98944.48
2022-08-03T11:55:18.976Z,98949.61
2022-08-03T11:59:13.150Z,98949.55
2022-08-03T12:01:06.770Z,98941.45
2022-08-03T12:03:54.241Z,98935.09
2022-08-03T12:06:56.459Z,98936.55
2022-08-03T12:09:44.409Z,98936.32
2022-08-03T12:12:31.960Z,98937.36
2022-08-03T12:15:22.737Z,98932.79
2022-08-03T12:18:18.505Z,98927.94
2022-08-03T12:21:10.398Z,98926.62
2022-08-03T12:24:00.901Z,98928.84
2022-08-03T12:26:58.556Z,98934.27
2022-08-03T12:29:39.992Z,98929.77
2022-08-03T12:32:28.049Z,98925.31
2022-08-03T12:35:25.577Z,98921.23
2022-08-03T12:38:13.705Z,98915.07
2022-08-03T12:41:06.679Z,98918.09
2022-08-03T12:43:55.344Z,98918.96
2022-08-03T12:46:47.759Z,98920.94
2022-08-03T12:49:50.425Z,98904.66
2022-08-03T12:52:45.786Z,98903.42
2022-08-03T12:55:57.521Z,98899.10
2022-08-03T12:58:34.530Z,98907.42
2022-08-03T13:01:27.421Z,98895.31
2022-08-03T13:04:18.265Z,98894.63
2022-08-03T13:07:06.498Z,98894.80
2022-08-03T13:09:56.993Z,98886.31
2022-08-03T13:12:50.927Z,98885.18
2022-08-03T13:15:48.103Z,98889.59
2022-08-03T13:18:27.456Z,98888.34
2022-08-03T13:21:16.456Z,98890.44
2022-08-03T13:24:03.689Z,98884.98
2022-08-03T13:26:51.745Z,98877.81
2022-08-03T13:29:39.224Z,98877.62
2022-08-03T13:32:26.487Z,98873.41
2022-08-03T13:35:16.499Z,98871.97
2022-08-03T13:38:04.338Z,98868.89
2022-08-03T13:40:56.459Z,98875.39
2022-08-03T13:43:43.802Z,98874.88
2022-08-03T13:46:31.344Z,98872.23
2022-08-03T13:49:19.803Z,98879.80
2022-08-03T13:52:07.386Z,98869.14
2022-08-03T13:54:54.950Z,98871.55
2022-08-03T13:58:11.928Z,98872.98
2022-08-03T14:00:31.554Z,98874.61
2022-08-03T14:03:18.979Z,98872.59
2022-08-03T14:06:07.153Z,98871.45
2022-08-03T14:09:00.310Z,98879.28
2022-08-03T14:12:07.650Z,98872.05
2022-08-03T14:14:34.791Z,98872.84
2022-08-03T14:17:23.909Z,98868.00
2022-08-03T14:20:36.635Z,98867.42
2022-08-03T14:23:02.490Z,98866.99
2022-08-03T14:25:52.354Z,98868.23
2022-08-03T14:28:39.001Z,98859.47
2022-08-03T14:32:09.982Z,98861.64
2022-08-03T14:34:16.480Z,98865.96
2022-08-03T14:37:03.874Z,98862.39
2022-08-03T14:40:00.071Z,98856.56
2022-08-03T14:42:40.234Z,98859.16
2022-08-03T14:45:27.842Z,98854.81
2022-08-03T14:50:30.725Z,98851.83
2022-08-03T14:51:04.154Z,98849.09
2022-08-03T14:53:51.609Z,98848.52
2022-08-03T14:56:39.314Z,98843.27
2022-08-03T14:59:26.426Z,98846.41
2022-08-03T15:02:23.310Z,98851.95
2022-08-03T15:05:03.411Z,98850.19
2022-08-03T15:07:51.245Z,98850.72
2022-08-03T15:10:44.425Z,98851.30
2022-08-03T15:13:28.873Z,98848.79
2022-08-03T15:16:16.665Z,98848.84
2022-08-03T15:19:04.908Z,98844.00
2022-08-03T15:21:53.461Z,98841.09
2022-08-03T15:24:40.953Z,98840.64
2022-08-03T15:27:28.377Z,98837.77
2022-08-03T15:30:16.088Z,98829.00
2022-08-03T15:33:03.745Z,98832.84
2022-08-03T15:35:51.178Z,98830.14
2022-08-03T15:38:38.560Z,98829.11
2022-08-03T15:41:26.122Z,98827.92
2022-08-03T15:44:13.577Z,98824.42
2022-08-03T15:47:00.650Z,98827.36
2022-08-03T15:49:48.264Z,98822.13
2022-08-03T15:52:35.617Z,98817.20
2022-08-03T15:55:23.193Z,98821.91
2022-08-03T15:59:04.323Z,98823.16
2022-08-03T16:01:03.799Z,98822.58
2022-08-03T16:03:51.194Z,98817.47
2022-08-03T16:06:38.776Z,98817.48
2022-08-03T16:09:43.200Z,98814.61
2022-08-03T16:12:16.878Z,98808.22
2022-08-03T16:15:05.802Z,98811.55
2022-08-03T16:17:53.740Z,98807.39
2022-08-03T16:20:41.713Z,98800.22
2022-08-03T16:23:29.547Z,98800.69
2022-08-03T16:26:18.621Z,98804.70
2022-08-03T16:29:08.524Z,98798.99
2022-08-03T16:31:55.178Z,98797.16
2022-08-03T16:34:42.628Z,98795.05
2022-08-03T16:37:38.932Z,98792.86
2022-08-03T16:40:19.954Z,98789.89
2022-08-03T16:43:18.516Z,98796.34
2022-08-03T16:46:03.410Z,98790.33
2022-08-03T16:48:50.809Z,98792.66
2022-08-03T16:51:40.372Z,98791.42
2022-08-03T16:54:29.024Z,98791.66
2022-08-03T16:57:29.726Z,98796.53
2022-08-03T17:00:06.706Z,98793.64
2022-08-03T17:02:56.528Z,98792.84
2022-08-03T17:05:47.150Z,98791.41
2022-08-03T17:08:34.041Z,98791.41
2022-08-03T17:11:21.674Z,98793.14
2022-08-03T17:14:09.862Z,98799.06
2022-08-03T17:17:01.661Z,98798.38
2022-08-03T17:19:54.266Z,98798.10
2022-08-03T17:22:40.681Z,98800.25
2022-08-03T17:26:01.354Z,98801.14
2022-08-03T17:28:43.100Z,98800.80
2022-08-03T17:31:31.420Z,98807.14
2022-08-03T17:34:12.312Z,98807.23
2022-08-03T17:37:04.868Z,98814.56
2022-08-03T17:39:58.753Z,98822.55
2022-08-03T17:42:40.700Z,98822.39
2022-08-03T17:45:52.596Z,98822.05
2022-08-03T17:48:18.870Z,98822.31
2022-08-03T17:51:15.444Z,98821.53
2022-08-03T17:54:21.963Z,98823.14
2022-08-03T17:57:22.712Z,98832.00
2022-08-03T18:00:27.097Z,98838.83
2022-08-03T18:03:24.202Z,98835.55
2022-08-03T18:06:12.850Z,98845.98
2022-08-03T18:11:52.681Z,98846.44
2022-08-03T18:14:57.912Z,98844.09
2022-08-03T18:17:55.337Z,98845.80
2022-08-03T18:20:32.808Z,98853.86
2022-08-03T18:23:24.866Z,98859.11
2022-08-03T18:26:07.256Z,98861.95
2022-08-03T18:28:56.426Z,98869.42
2022-08-03T18:32:02.504Z,98876.92
2022-08-03T18:34:35.577Z,98876.41
2022-08-03T18:37:27.585Z,98883.16
2022-08-03T18:40:20.629Z,98890.50
2022-08-03T18:43:07.969Z,98893.19
2022-08-03T18:45:58.240Z,98898.23
2022-08-03T18:48:51.536Z,98894.48
2022-08-03T18:51:43.171Z,98910.38
2022-08-03T18:54:47.045Z,98909.14
2022-08-03T18:57:30.377Z,98900.36
2022-08-03T19:00:15.817Z,98905.61
2022-08-03T19:03:09.097Z,98908.47
2022-08-03T19:06:13.312Z,98907.70
2022-08-03T19:09:09.678Z,98911.95
2022-08-03T19:12:14.066Z,98909.05
2022-08-03T19:14:52.225Z,98905.90
2022-08-03T19:17:50.221Z,98910.37
2022-08-03T19:20:36.561Z,98901.76
2022-08-03T19:23:26.217Z,98901.22
2022-08-03T19:26:30.215Z,98902.02
2022-08-03T19:29:15.149Z,98908.83
2022-08-03T19:32:00.152Z,98910.17
2022-08-03T19:34:49.441Z,98907.67
2022-08-03T19:37:40.279Z,98910.40
2022-08-03T19:40:30.482Z,98900.17
2022-08-03T19:43:33.133Z,98903.86
2022-08-03T19:46:30.322Z,98907.97
2022-08-03T19:49:14.765Z,98911.14
2022-08-03T19:52:04.377Z,98912.33
2022-08-03T19:54:55.294Z,98913.42
2022-08-03T19:57:46.031Z,98914.78
2022-08-03T20:00:38.137Z,98915.95
2022-08-03T20:03:42.951Z,98920.77
2022-08-03T20:06:25.377Z,98925.74
2022-08-03T20:09:15.005Z,98918.23
2022-08-03T20:12:07.191Z,98924.69
2022-08-03T20:14:56.832Z,98929.31
2022-08-03T20:17:54.537Z,98932.61
2022-08-03T20:20:37.185Z,98936.11
2022-08-03T20:23:26.105Z,98931.83
2022-08-03T20:26:20.480Z,98928.81
2022-08-03T20:29:11.298Z,98928.22
2022-08-03T20:31:59.466Z,98932.20
2022-08-03T20:34:49.420Z,98932.94
2022-08-03T20:37:37.322Z,98931.66
2022-08-03T20:40:27.500Z,98932.96
2022-08-03T20:43:15.761Z,98924.73
2022-08-03T20:46:29.406Z,98925.91
2022-08-03T20:48:52.858Z,98925.91
2022-08-03T20:51:49.762Z,98927.96
2022-08-03T20:54:31.850Z,98932.30
2022-08-03T20:57:20.134Z,98926.67
2022-08-03T21:00:10.428Z,98934.87
2022-08-03T21:02:58.849Z,98934.11
2022-08-03T21:05:51.764Z,98929.11
2022-08-03T21:11:41.415Z,98923.47
2022-08-03T21:12:56.884Z,98843.50
2022-08-03T21:13:14.253Z,98924.55
2022-08-03T21:14:35.520Z,98927.77
2022-08-03T21:17:39.609Z,98917.52
2022-08-03T21:20:13.793Z,98927.08
2022-08-03T21:23:01.876Z,98929.33
2022-08-03T21:25:51.041Z,98927.17
2022-08-03T21:28:39.952Z,98923.14
2022-08-03T21:31:27.343Z,98928.08
2022-08-03T21:34:15.049Z,98930.91
2022-08-03T21:37:02.768Z,98932.55
2022-08-03T21:39:51.255Z,98931.64
2022-08-03T21:42:43.297Z,98929.22
2022-08-03T21:45:30.560Z,98929.25
2022-08-03T21:48:18.448Z,98930.09
2022-08-03T21:51:07.601Z,98932.19
2022-08-03T21:54:03.231Z,98936.29
2022-08-03T21:56:45.032Z,98936.54
2022-08-03T21:59:36.608Z,98940.39
2022-08-03T22:02:31.555Z,98939.58
2022-08-03T22:05:20.024Z,98937.37
2022-08-03T22:08:09.417Z,98934.02
2022-08-03T22:10:56.672Z,98940.20
2022-08-03T22:13:44.794Z,98943.78
2022-08-03T22:16:32.160Z,98945.33
2022-08-03T22:19:20.001Z,98939.64
2022-08-03T22:22:10.361Z,98937.80
2022-08-03T22:24:58.425Z,98936.40
2022-08-03T22:27:47.138Z,98939.73
2022-08-03T22:30:34.723Z,98944.28
2022-08-03T22:33:22.794Z,98941.15
2022-08-03T22:36:11.787Z,98943.27
2022-08-03T22:38:59.126Z,98941.39
2022-08-03T22:41:47.017Z,98945.70
2022-08-03T22:44:36.768Z,98944.99
2022-08-03T22:47:24.968Z,98941.05
2022-08-03T22:50:31.948Z,98942.22
2022-08-03T22:53:04.024Z,98947.09
2022-08-03T22:55:52.534Z,98942.56
2022-08-03T22:58:40.483Z,98942.21
2022-08-03T23:01:29.474Z,98936.39
2022-08-03T23:04:18.068Z,98942.73
2022-08-03T23:07:09.424Z,98952.83
2022-08-03T23:09:58.657Z,98954.45
2022-08-03T23:12:49.410Z,98949.65
2022-08-03T23:15:37.098Z,98940.34
2022-08-03T23:18:25.610Z,98940.61
2022-08-03T23:21:13.146Z,98942.00
2022-08-03T23:24:05.265Z,98941.86
2022-08-03T23:26:54.176Z,98941.05
2022-08-03T23:29:43.770Z,98933.03
2022-08-03T23:32:32.282Z,98934.42
2022-08-03T23:36:29.163Z,98925.17
2022-08-03T23:38:31.651Z,98930.87
2022-08-03T23:41:19.553Z,98926.34
2022-08-03T23:44:06.865Z,98930.96
2022-08-03T23:46:54.011Z,98932.92
2022-08-03T23:49:41.387Z,98927.81
2022-08-03T23:52:37.714Z,98929.06
2022-08-03T23:55:52.746Z,98934.27
2022-08-03T23:59:04.137Z,98932.51
